Time;durP1;ratioP1;P1;durP2;ratioP2;P2;SDS_P1;SDS_P2;PMS_P1;PMS_P2;Temp;Humidity;BMP_temperature;BMP_pressure;BME280_temperature;BME280_humidity;BME280_pressure;Samples;Min_cycle;Max_cycle;Signal;HPM_P1;HPM_P2
2022/06/26 00:00:40;;;;;;;9.83;8.87;;;;;;;17.02;100.00;92820.13;5001027;28;20931;-73
2022/06/26 00:03:05;;;;;;;9.57;8.97;;;;;;;17.07;100.00;92809.44;5003475;28;20200;-73
2022/06/26 00:05:30;;;;;;;10.20;9.33;;;;;;;17.17;100.00;92817.00;4999620;28;20176;-72
2022/06/26 00:07:56;;;;;;;9.93;9.33;;;;;;;16.90;100.00;92801.53;5004358;28;20232;-73
2022/06/26 00:10:21;;;;;;;9.87;9.27;;;;;;;16.93;100.00;92817.53;5005969;28;20192;-73
2022/06/26 00:12:47;;;;;;;10.60;9.50;;;;;;;17.17;100.00;92822.28;5000961;28;20199;-73
2022/06/26 00:15:12;;;;;;;9.93;9.00;;;;;;;16.91;100.00;92806.50;5002040;28;20195;-71
2022/06/26 00:17:38;;;;;;;9.40;8.60;;;;;;;17.04;100.00;92813.44;5001844;28;20246;-73
2022/06/26 00:20:04;;;;;;;8.60;8.00;;;;;;;17.18;100.00;92832.50;5000958;28;20215;-72
2022/06/26 00:22:30;;;;;;;10.67;9.87;;;;;;;17.17;100.00;92828.34;5000584;28;20223;-72
2022/06/26 00:24:55;;;;;;;10.40;9.50;;;;;;;17.19;100.00;92826.16;5003241;28;20200;-71
2022/06/26 00:27:21;;;;;;;11.07;10.00;;;;;;;17.28;100.00;92840.13;5003386;28;20263;-70
2022/06/26 00:29:46;;;;;;;11.20;10.13;;;;;;;16.96;100.00;92816.09;5001724;28;20207;-70
2022/06/26 00:32:11;;;;;;;11.43;10.27;;;;;;;17.13;100.00;92827.41;5001358;28;20228;-71
2022/06/26 00:34:37;;;;;;;10.63;9.57;;;;;;;17.23;100.00;92821.81;5003913;28;20199;-71
2022/06/26 00:37:03;;;;;;;11.37;10.47;;;;;;;17.28;100.00;92820.84;5003401;28;20208;-70
2022/06/26 00:39:28;;;;;;;11.00;10.20;;;;;;;17.22;100.00;92812.34;5004649;28;20558;-70
2022/06/26 00:41:53;;;;;;;9.43;8.57;;;;;;;17.15;100.00;92822.59;5002592;28;20254;-70
2022/06/26 00:44:23;;;;;;;10.87;9.73;;;;;;;17.24;100.00;92823.38;5000696;28;20212;-70
2022/06/26 00:46:49;;;;;;;9.50;8.90;;;;;;;17.29;100.00;92810.00;5003925;28;20287;-71
2022/06/26 00:49:15;;;;;;;10.50;9.80;;;;;;;17.30;100.00;92827.41;5003666;28;20176;-70
2022/06/26 00:51:45;;;;;;;9.53;8.93;;;;;;;17.19;100.00;92818.25;4998441;28;20223;-70
2022/06/26 00:54:11;;;;;;;9.50;8.70;;;;;;;17.19;100.00;92815.63;5006062;28;20195;-72
2022/06/26 00:56:37;;;;;;;12.03;9.07;;;;;;;17.15;100.00;92819.94;5002717;28;20284;-71
2022/06/26 00:59:04;;;;;;;8.57;8.00;;;;;;;17.09;100.00;92813.28;5004515;28;20219;-70
2022/06/26 01:01:30;;;;;;;9.67;8.97;;;;;;;17.23;100.00;92827.09;5001849;28;20262;-70
2022/06/26 01:03:55;;;;;;;11.33;8.50;;;;;;;16.97;100.00;92828.97;5001387;28;20188;-70
2022/06/26 01:06:21;;;;;;;9.33;8.73;;;;;;;16.97;100.00;92826.34;5002614;28;20256;-70
2022/06/26 01:08:47;;;;;;;8.67;8.13;;;;;;;16.89;100.00;92821.84;5002264;28;20199;-70
2022/06/26 01:11:18;;;;;;;8.67;8.17;;;;;;;16.79;100.00;92824.03;5004190;28;20227;-71
2022/06/26 01:13:45;;;;;;;8.60;8.00;;;;;;;16.85;100.00;92826.22;5001184;28;20189;-70
2022/06/26 01:16:13;;;;;;;7.93;7.53;;;;;;;16.77;100.00;92821.72;5001928;28;20220;-70
2022/06/26 01:18:38;;;;;;;8.73;8.10;;;;;;;16.82;100.00;92837.38;5003183;28;20204;-70
2022/06/26 01:21:04;;;;;;;8.17;7.73;;;;;;;16.84;100.00;92834.44;5001705;28;20263;-70
2022/06/26 01:23:29;;;;;;;8.60;8.20;;;;;;;16.84;100.00;92826.50;5000254;28;20175;-70
2022/06/26 01:25:54;;;;;;;8.93;8.47;;;;;;;16.83;100.00;92832.84;5003963;28;20238;-71
2022/06/26 01:28:20;;;;;;;8.00;7.40;;;;;;;16.78;100.00;92831.16;5001333;28;20202;-70
2022/06/26 01:30:45;;;;;;;9.37;8.57;;;;;;;16.81;100.00;92838.44;5001008;28;20224;-71
2022/06/26 01:33:11;;;;;;;8.30;7.90;;;;;;;16.71;100.00;92840.63;5001484;28;20227;-70
2022/06/26 01:35:36;;;;;;;8.80;7.33;;;;;;;16.68;100.00;92830.69;4999421;28;20188;-70
2022/06/26 01:38:16;;;;;;;7.97;7.60;;;;;;;16.71;100.00;92830.84;5001563;28;20192;-70
2022/06/26 01:40:43;;;;;;;8.13;7.73;;;;;;;16.71;100.00;92825.59;5001615;28;20271;-70
2022/06/26 01:43:10;;;;;;;7.67;7.17;;;;;;;16.63;100.00;92834.25;4999612;28;20205;-70
2022/06/26 01:45:43;;;;;;;8.07;7.67;;;;;;;16.70;100.00;92834.56;5000471;28;20196;-70
2022/06/26 01:48:09;;;;;;;9.10;8.47;;;;;;;16.46;100.00;92797.34;5003537;28;20176;-70
2022/06/26 01:50:34;;;;;;;8.67;8.27;;;;;;;16.72;100.00;92823.72;5002560;28;20222;-70
2022/06/26 01:52:59;;;;;;;8.97;8.57;;;;;;;16.72;100.00;92837.66;4999398;28;20199;-71
2022/06/26 01:55:25;;;;;;;9.30;8.63;;;;;;;16.66;100.00;92827.59;4999101;28;20193;-70
2022/06/26 01:57:50;;;;;;;8.63;8.20;;;;;;;16.80;100.00;92859.84;5003595;28;20185;-70
2022/06/26 02:00:16;;;;;;;8.33;7.83;;;;;;;16.78;100.00;92854.88;5003076;28;20223;-70
2022/06/26 02:02:41;;;;;;;8.83;8.33;;;;;;;16.62;100.00;92845.91;5000742;28;20238;-69
2022/06/26 02:05:07;;;;;;;8.50;8.00;;;;;;;16.46;100.00;92846.66;5002173;28;20260;-70
2022/06/26 02:07:32;;;;;;;9.17;8.60;;;;;;;16.69;100.00;92867.28;5000054;28;20287;-71
2022/06/26 02:15:26;;;;;;;8.23;7.77;;;;;;;16.78;100.00;92875.22;5002581;28;20198;-70
2022/06/26 02:17:51;;;;;;;8.20;7.83;;;;;;;16.84;100.00;92880.00;4999863;28;20179;-69
2022/06/26 02:20:16;;;;;;;9.33;8.83;;;;;;;16.99;100.00;92873.50;5005713;28;20219;-70
2022/06/26 02:22:42;;;;;;;9.20;8.50;;;;;;;16.98;100.00;92872.72;5005289;28;20271;-70
2022/06/26 02:25:08;;;;;;;8.83;8.10;;;;;;;16.75;100.00;92862.63;5003323;28;20200;-70
2022/06/26 02:27:34;;;;;;;9.07;8.20;;;;;;;16.80;100.00;92855.38;5004512;28;20231;-70
2022/06/26 02:30:00;;;;;;;8.10;7.60;;;;;;;16.98;100.00;92872.72;5004402;28;20183;-70
2022/06/26 02:32:26;;;;;;;9.73;8.90;;;;;;;16.96;100.00;92869.66;5004658;28;20219;-70
2022/06/26 02:34:51;;;;;;;8.67;8.20;;;;;;;16.95;100.00;92868.06;5005997;28;20179;-70
2022/06/26 02:37:16;;;;;;;8.93;8.40;;;;;;;16.67;100.00;92861.53;5007164;28;20232;-69
2022/06/26 02:39:42;;;;;;;9.13;8.37;;;;;;;16.51;100.00;92849.13;5006371;28;20963;-70
2022/06/26 02:42:07;;;;;;;8.70;8.00;;;;;;;16.60;100.00;92852.56;5003126;28;20232;-69
2022/06/26 02:44:34;;;;;;;9.40;8.77;;;;;;;16.62;100.00;92872.25;5005061;28;20238;-69
2022/06/26 02:46:59;;;;;;;8.10;7.70;;;;;;;16.53;100.00;92865.44;5003895;28;20228;-69
2022/06/26 02:49:25;;;;;;;8.93;8.40;;;;;;;16.56;100.00;92867.44;5005763;28;20204;-70
2022/06/26 02:51:50;;;;;;;9.87;9.30;;;;;;;16.49;100.00;92867.91;5004098;28;20224;-70
2022/06/26 02:54:15;;;;;;;9.10;8.47;;;;;;;16.46;100.00;92865.88;5003714;28;20192;-70
2022/06/26 02:56:41;;;;;;;7.80;7.43;;;;;;;16.52;100.00;92877.81;5005160;28;20224;-69
2022/06/26 02:59:06;;;;;;;8.87;8.37;;;;;;;16.66;100.00;92886.38;5006647;28;20203;-70
2022/06/26 03:01:32;;;;;;;8.77;8.17;;;;;;;16.57;100.00;92880.31;5002553;28;20263;-70
2022/06/26 03:03:57;;;;;;;9.00;8.50;;;;;;;16.48;100.00;92879.53;5004171;28;20187;-69
2022/06/26 03:06:22;;;;;;;9.00;8.60;;;;;;;16.47;100.00;92870.06;5001494;28;20256;-69
2022/06/26 03:08:48;;;;;;;8.20;7.87;;;;;;;16.62;100.00;92888.09;5003742;28;20282;-69
2022/06/26 03:11:13;;;;;;;8.60;8.20;;;;;;;16.59;100.00;92888.66;5008848;28;20222;-69
2022/06/26 03:13:39;;;;;;;8.60;8.10;;;;;;;16.63;100.00;92881.72;5003191;28;20183;-69
2022/06/26 03:16:05;;;;;;;8.40;7.93;;;;;;;16.65;100.00;92876.91;5002517;28;20243;-71
2022/06/26 03:18:30;;;;;;;8.60;8.13;;;;;;;16.56;100.00;92873.47;5005994;28;20212;-69
2022/06/26 03:20:56;;;;;;;8.53;7.77;;;;;;;16.63;100.00;92881.72;5004320;28;20226;-70
2022/06/26 03:24:01;;;;;;;8.83;8.30;;;;;;;16.67;100.00;92879.25;5006966;28;20220;-68
2022/06/26 03:26:07;;;;;;;9.13;8.47;;;;;;;16.87;100.00;92887.31;5002437;28;20244;-70
2022/06/26 03:28:33;;;;;;;9.03;8.20;;;;;;;16.91;100.00;92903.28;5003899;28;20184;-70
2022/06/26 03:30:58;;;;;;;8.97;8.33;;;;;;;17.12;100.00;92904.25;5000646;28;20234;-69
2022/06/26 03:33:24;;;;;;;9.37;8.07;;;;;;;17.06;100.00;92902.81;5004385;28;20204;-69
2022/06/26 03:35:49;;;;;;;11.30;8.30;;;;;;;16.99;100.00;92905.94;5004170;28;20315;-70
2022/06/26 03:38:15;;;;;;;7.43;7.13;;;;;;;17.02;100.00;92899.28;5001824;28;20181;-69
2022/06/26 03:40:40;;;;;;;9.37;8.67;;;;;;;17.04;100.00;92907.66;5004840;28;20247;-69
2022/06/26 03:43:09;;;;;;;8.97;8.57;;;;;;;17.08;100.00;92903.31;5001206;28;20195;-69
2022/06/26 03:45:35;;;;;;;9.60;8.83;;;;;;;17.03;100.00;92909.50;5003921;28;20244;-70
2022/06/26 03:48:00;;;;;;;9.20;8.60;;;;;;;17.30;100.00;92901.28;5004579;28;20194;-70
2022/06/26 03:50:26;;;;;;;8.73;8.23;;;;;;;17.24;100.00;92891.19;5003234;28;20259;-70
2022/06/26 03:52:51;;;;;;;8.70;8.23;;;;;;;17.48;100.00;92908.13;5005590;28;20199;-69
2022/06/26 03:55:16;;;;;;;9.87;9.27;;;;;;;17.36;100.00;92894.75;4987981;28;20196;-69
2022/06/26 03:57:42;;;;;;;8.47;8.07;;;;;;;17.28;99.61;92871.78;5002943;28;20274;-69
2022/06/26 04:00:08;;;;;;;8.90;8.30;;;;;;;17.43;100.00;92894.28;5003983;28;20276;-69
2022/06/26 04:02:33;;;;;;;8.80;8.20;;;;;;;17.56;100.00;92909.97;5004269;28;20230;-69
2022/06/26 04:04:59;;;;;;;7.93;7.50;;;;;;;17.37;99.60;92912.13;5004581;28;21202;-69
2022/06/26 04:07:24;;;;;;;9.07;8.37;;;;;;;17.28;100.00;92914.00;5003464;28;20235;-69
2022/06/26 04:09:49;;;;;;;9.30;8.50;;;;;;;17.27;100.00;92912.47;5000585;28;20200;-69
2022/06/26 04:12:15;;;;;;;10.47;9.60;;;;;;;17.59;100.00;92919.13;5004491;28;20247;-69
2022/06/26 04:14:41;;;;;;;9.63;8.20;;;;;;;17.68;100.00;92911.19;5001393;28;20184;-69
2022/06/26 04:17:06;;;;;;;8.90;8.30;;;;;;;17.81;100.00;92920.78;5002770;28;20223;-70
2022/06/26 04:19:32;;;;;;;9.67;8.97;;;;;;;17.84;100.00;92917.53;5003922;28;20227;-70
2022/06/26 04:21:57;;;;;;;9.23;8.47;;;;;;;17.86;100.00;92923.25;5001025;28;20227;-70
2022/06/26 04:24:23;;;;;;;9.30;8.80;;;;;;;17.67;100.00;92920.19;5003295;28;20243;-69
2022/06/26 04:26:48;;;;;;;10.87;10.00;;;;;;;17.84;100.00;92928.09;5002559;28;20234;-69
2022/06/26 04:29:13;;;;;;;10.23;8.70;;;;;;;17.69;100.00;92918.81;5002261;28;20186;-69
2022/06/26 04:31:39;;;;;;;9.57;8.87;;;;;;;17.87;100.00;92922.19;5003404;28;21125;-69
2022/06/26 04:34:04;;;;;;;10.77;9.97;;;;;;;17.97;100.00;92921.84;5001044;28;20193;-70
2022/06/26 04:36:30;;;;;;;10.80;10.00;;;;;;;17.99;99.03;92878.19;5003575;28;20233;-69
2022/06/26 04:38:55;;;;;;;10.87;9.77;;;;;;;18.24;98.59;92911.63;5001802;28;20235;-70
2022/06/26 04:41:34;;;;;;;10.03;9.33;;;;;;;18.28;99.03;92920.47;5002301;28;20224;-70
2022/06/26 04:44:02;;;;;;;9.87;9.17;;;;;;;18.33;98.47;92919.53;5001769;28;20188;-69
2022/06/26 04:46:27;;;;;;;13.33;9.87;;;;;;;18.46;97.68;92921.22;5001598;28;20242;-69
2022/06/26 04:48:52;;;;;;;12.27;11.27;;;;;;;18.59;95.98;92899.03;4982738;28;20209;-69
2022/06/26 04:51:18;;;;;;;11.13;10.27;;;;;;;18.87;94.05;92910.69;5004204;28;20248;-69
2022/06/26 04:53:45;;;;;;;10.43;9.77;;;;;;;19.29;92.25;92927.38;5000646;28;20212;-70
2022/06/26 04:56:10;;;;;;;12.97;11.83;;;;;;;19.47;90.43;92931.47;5004288;28;20218;-70
2022/06/26 04:58:36;;;;;;;12.77;11.63;;;;;;;19.96;87.18;92933.94;5004546;28;20303;-69
2022/06/26 05:01:02;;;;;;;12.83;11.13;;;;;;;20.20;85.84;92923.41;5000325;28;20242;-70
2022/06/26 05:03:28;;;;;;;11.73;10.83;;;;;;;20.31;84.69;92932.47;5004177;28;20197;-69
2022/06/26 05:05:53;;;;;;;13.83;10.70;;;;;;;20.48;83.93;92944.78;4999144;28;20229;-72
2022/06/26 05:08:19;;;;;;;11.97;10.67;;;;;;;20.67;82.28;92929.84;5002615;28;20246;-70
2022/06/26 05:10:44;;;;;;;12.85;11.85;;;;;;;21.21;80.00;92956.16;5001285;28;20228;-70
2022/06/26 05:13:10;;;;;;;12.68;11.63;;;;;;;21.49;77.24;92943.69;5000109;28;20191;-70
2022/06/26 05:15:35;;;;;;;14.15;12.85;;;;;;;21.93;74.92;92964.69;5004175;28;20245;-69
2022/06/26 05:18:01;;;;;;;12.30;11.23;;;;;;;22.49;73.95;92965.38;5002224;28;20300;-70
2022/06/26 05:20:26;;;;;;;12.82;11.75;;;;;;;23.85;66.74;92968.88;4999092;28;20217;-69
2022/06/26 05:22:51;;;;;;;12.07;10.90;;;;;;;24.76;63.20;92974.03;5000154;28;21177;-70
2022/06/26 05:25:17;;;;;;;12.13;11.07;;;;;;;24.28;64.59;92973.94;5001732;28;20191;-70
2022/06/26 05:27:42;;;;;;;11.68;10.55;;;;;;;24.76;63.19;92978.63;4998568;28;20245;-70
2022/06/26 05:30:08;;;;;;;11.88;11.05;;;;;;;23.43;65.44;92924.25;4998652;28;20189;-70
2022/06/26 05:32:34;;;;;;;12.13;11.13;;;;;;;24.65;62.74;92962.41;5002469;28;20238;-72
2022/06/26 05:35:00;;;;;;;11.48;10.38;;;;;;;24.64;63.21;92989.47;5002400;28;20249;-71
2022/06/26 05:37:25;;;;;;;12.45;11.20;;;;;;;24.88;62.32;92991.78;5001565;28;20237;-70
2022/06/26 05:39:50;;;;;;;10.88;10.07;;;;;;;26.28;57.37;92993.78;5001405;28;20329;-70
2022/06/26 05:42:16;;;;;;;10.70;9.63;;;;;;;29.38;48.89;93007.81;5001345;28;20246;-69
2022/06/26 05:44:41;;;;;;;10.98;9.95;;;;;;;30.82;44.38;93012.06;5000371;28;20183;-69
2022/06/26 05:47:07;;;;;;;9.48;8.88;;;;;;;33.13;37.61;93025.19;4999701;28;21242;-69
2022/06/26 05:49:32;;;;;;;13.82;12.82;;;;;;;32.14;41.07;93020.19;5004120;28;20253;-70
2022/06/26 05:51:57;;;;;;;16.42;9.45;;;;;;;34.82;35.17;93025.66;5000401;28;20779;-70
2022/06/26 05:54:23;;;;;;;10.95;8.27;;;;;;;36.55;31.53;93024.97;4987942;28;20211;-70
2022/06/26 05:56:48;;;;;;;8.25;7.68;;;;;;;35.90;32.71;93029.03;5004791;28;20234;-69
2022/06/26 05:59:14;;;;;;;9.35;8.57;;;;;;;35.65;32.08;93024.19;5006256;28;20200;-71
2022/06/26 06:01:39;;;;;;;8.63;8.05;;;;;;;36.68;31.15;93028.50;5008844;28;20222;-69
2022/06/26 06:04:05;;;;;;;8.35;7.63;;;;;;;36.59;32.09;93033.81;5007382;28;20188;-71
2022/06/26 06:06:31;;;;;;;9.93;7.90;;;;;;;32.53;37.41;93025.94;5003174;28;20235;-70
2022/06/26 06:08:56;;;;;;;7.47;6.97;;;;;;;30.25;42.62;93013.44;5004633;28;20188;-70
2022/06/26 06:11:23;;;;;;;8.18;7.57;;;;;;;36.12;32.57;93035.47;5006494;28;20232;-70
2022/06/26 06:13:48;;;;;;;7.88;7.28;;;;;;;31.39;40.05;93002.41;5006631;28;20251;-71
2022/06/26 06:16:13;;;;;;;7.55;7.03;;;;;;;34.23;35.75;93003.22;5003564;28;20228;-70
2022/06/26 06:18:39;;;;;;;8.30;7.60;;;;;;;31.23;39.89;93012.91;5007914;28;20202;-73
2022/06/26 06:21:04;;;;;;;8.27;7.57;;;;;;;34.78;33.26;93018.78;5008504;28;20246;-73
2022/06/26 06:23:30;;;;;;;8.70;7.95;;;;;;;35.32;33.76;93026.13;5005197;28;20210;-72
2022/06/26 06:25:55;;;;;;;8.23;7.53;;;;;;;35.76;32.38;93037.53;5006058;28;20215;-73
2022/06/26 06:28:21;;;;;;;8.90;8.20;;;;;;;38.07;29.13;93044.47;5002303;28;20188;-72
2022/06/26 06:30:46;;;;;;;7.95;7.35;;;;;;;34.52;34.66;93025.94;5005283;28;20254;-73
2022/06/26 06:33:12;;;;;;;8.70;7.88;;;;;;;31.94;39.98;93027.38;5004156;28;20219;-71
2022/06/26 06:35:37;;;;;;;9.40;8.60;;;;;;;29.83;45.24;93022.41;5005569;28;21802;-73
2022/06/26 06:38:03;;;;;;;10.65;9.73;;;;;;;27.53;51.18;93018.69;5007400;28;20193;-73
2022/06/26 06:40:29;;;;;;;10.02;8.98;;;;;;;27.30;52.96;93007.41;5008113;28;20238;-71
2022/06/26 06:42:55;;;;;;;9.77;9.07;;;;;;;30.01;45.86;93016.97;5005125;28;20214;-71
2022/06/26 06:45:20;;;;;;;11.23;9.95;;;;;;;32.93;39.36;93021.59;5004624;28;20172;-73
2022/06/26 06:47:46;;;;;;;9.98;9.07;;;;;;;32.91;39.19;93029.34;5009031;28;20254;-70
2022/06/26 06:50:11;;;;;;;9.75;8.82;;;;;;;30.94;43.18;93012.34;5007465;28;20216;-70
2022/06/26 06:52:37;;;;;;;10.15;9.35;;;;;;;26.75;53.33;93009.22;5002688;28;20275;-72
2022/06/26 06:55:03;;;;;;;11.75;10.95;;;;;;;26.95;53.75;92999.81;4986456;28;20192;-71
2022/06/26 06:57:29;;;;;;;10.93;10.15;;;;;;;23.63;64.82;92992.44;5006198;28;20227;-71
2022/06/26 06:59:54;;;;;;;13.00;11.07;;;;;;;23.33;66.49;92983.41;5006602;28;20279;-71
2022/06/26 07:02:20;;;;;;;11.45;10.52;;;;;;;23.84;67.35;92989.44;5003710;28;20223;-76
2022/06/26 07:04:45;;;;;;;11.95;10.77;;;;;;;22.62;68.84;92990.06;5003616;28;20188;-69
2022/06/26 07:07:11;;;;;;;11.75;10.55;;;;;;;23.21;69.29;92990.72;5004820;28;20278;-72
2022/06/26 07:09:36;;;;;;;12.30;10.55;;;;;;;23.91;66.20;92965.56;5005193;28;20267;-70
2022/06/26 07:12:02;;;;;;;11.88;10.70;;;;;;;24.67;63.04;92996.78;5002942;28;20286;-69
2022/06/26 07:14:27;;;;;;;12.00;10.80;;;;;;;24.10;65.51;92996.81;5005182;28;20175;-68
2022/06/26 07:16:53;;;;;;;11.55;10.52;;;;;;;23.81;68.03;93000.81;5009808;28;20218;-70
2022/06/26 07:19:18;;;;;;;11.13;10.23;;;;;;;23.68;68.55;93002.84;5005934;28;20244;-69
2022/06/26 07:21:44;;;;;;;11.25;10.45;;;;;;;23.46;68.88;93003.50;5006112;28;20226;-70
2022/06/26 07:24:10;;;;;;;11.30;10.27;;;;;;;23.40;69.46;92988.13;5007096;28;20197;-69
2022/06/26 07:26:36;;;;;;;10.80;10.02;;;;;;;23.71;67.96;92990.69;5005949;28;20226;-70
2022/06/26 07:29:01;;;;;;;10.90;9.95;;;;;;;23.85;65.58;92992.88;5004695;28;20229;-75
2022/06/26 07:31:27;;;;;;;13.95;10.23;;;;;;;23.73;66.88;93007.13;5003223;28;20237;-75
2022/06/26 07:36:36;;;;;;;9.70;8.90;;;;;;;23.32;67.68;92991.75;5002823;28;20234;-73
2022/06/26 07:39:01;;;;;;;10.60;9.77;;;;;;;23.13;68.87;92994.34;5003489;28;20933;-72
2022/06/26 07:41:27;;;;;;;9.98;9.27;;;;;;;23.53;71.07;92998.31;4999522;28;20248;-73
2022/06/26 07:43:52;;;;;;;9.68;8.77;;;;;;;23.98;65.45;93003.09;5001549;28;20200;-73
2022/06/26 07:46:18;;;;;;;10.20;9.50;;;;;;;23.59;68.73;92988.16;5002809;28;20224;-72
2022/06/26 07:48:43;;;;;;;10.05;9.23;;;;;;;23.60;65.95;92998.47;5001706;28;20202;-71
2022/06/26 07:51:08;;;;;;;11.48;10.57;;;;;;;23.03;65.88;93000.19;5001007;28;20250;-71
2022/06/26 07:53:34;;;;;;;9.73;8.77;;;;;;;22.53;66.60;92960.97;5005017;28;20187;-69
2022/06/26 07:55:59;;;;;;;9.93;9.23;;;;;;;22.88;68.03;92988.44;4999614;28;20231;-68
2022/06/26 07:58:25;;;;;;;9.30;8.63;;;;;;;23.82;63.14;92996.22;5004431;28;20190;-71
2022/06/26 08:00:50;;;;;;;9.57;8.63;;;;;;;23.68;65.22;92994.84;5001835;28;20242;-71
2022/06/26 08:03:16;;;;;;;10.75;9.73;;;;;;;23.89;61.74;92994.50;5003150;28;21080;-68
2022/06/26 08:05:43;;;;;;;10.13;9.27;;;;;;;23.07;64.62;92987.72;5002912;28;21201;-67
2022/06/26 08:08:09;;;;;;;9.40;8.70;;;;;;;23.69;63.52;92992.94;5000680;28;20269;-68
2022/06/26 08:10:35;;;;;;;11.55;10.55;;;;;;;24.00;61.90;92994.75;5000527;28;20193;-68
2022/06/26 08:13:02;;;;;;;10.35;9.32;;;;;;;23.01;61.49;92989.88;4999882;28;20195;-68
2022/06/26 08:15:27;;;;;;;10.00;9.02;;;;;;;22.95;65.95;92996.59;5004309;28;20237;-68
2022/06/26 08:17:54;;;;;;;10.35;9.25;;;;;;;23.58;60.58;92999.97;5001944;28;20190;-67
2022/06/26 08:20:20;;;;;;;9.45;8.93;;;;;;;23.55;62.99;93001.41;5000355;28;20241;-67
2022/06/26 08:22:45;;;;;;;9.35;8.63;;;;;;;23.91;59.66;92996.81;5002230;28;20202;-67
2022/06/26 08:25:10;;;;;;;8.73;8.07;;;;;;;23.90;62.13;92997.94;4998780;28;20213;-68
2022/06/26 08:27:36;;;;;;;10.35;9.25;;;;;;;23.55;61.41;92989.97;5002353;28;20281;-68
2022/06/26 08:30:03;;;;;;;9.30;8.27;;;;;;;24.09;58.47;92993.41;4999919;28;20186;-68
2022/06/26 08:32:29;;;;;;;8.32;7.82;;;;;;;23.80;55.94;92993.16;5004445;28;20250;-67
2022/06/26 08:34:54;;;;;;;10.60;8.93;;;;;;;23.69;57.31;92999.03;5002281;28;20181;-67
2022/06/26 08:37:19;;;;;;;9.05;8.27;;;;;;;23.97;56.21;92990.13;5001515;28;20225;-70
2022/06/26 08:39:45;;;;;;;9.07;8.38;;;;;;;23.80;55.72;92998.50;5000998;28;20324;-68
2022/06/26 08:42:11;;;;;;;9.23;8.45;;;;;;;23.33;59.73;93002.06;5001498;28;20218;-68
2022/06/26 08:44:44;;;;;;;8.82;8.30;;;;;;;23.75;55.42;93005.63;5001737;28;20213;-68
2022/06/26 08:47:16;;;;;;;9.65;8.80;;;;;;;23.90;59.13;93001.38;5001165;28;20321;-73
2022/06/26 08:49:41;;;;;;;8.98;8.48;;;;;;;24.02;57.76;93003.94;5003500;28;20184;-73
2022/06/26 08:52:10;;;;;;;8.70;8.20;;;;;;;24.16;54.59;92984.75;5004124;28;20794;-72
2022/06/26 08:54:36;;;;;;;8.00;7.40;;;;;;;23.64;52.21;92983.31;5000746;28;20187;-73
2022/06/26 08:57:02;;;;;;;8.10;7.50;;;;;;;23.88;53.51;92997.53;5000679;28;20219;-73
2022/06/26 08:59:29;;;;;;;7.47;7.07;;;;;;;23.44;53.47;92997.00;5000596;28;20205;-74
2022/06/26 09:01:55;;;;;;;9.38;8.30;;;;;;;24.07;52.60;93000.19;5000814;28;20224;-73
2022/06/26 09:04:21;;;;;;;8.60;8.05;;;;;;;24.52;50.53;92992.28;5002664;28;20193;-73
2022/06/26 09:06:46;;;;;;;7.70;7.00;;;;;;;24.59;49.83;92989.75;5001126;28;20250;-73
2022/06/26 09:09:23;;;;;;;8.18;7.68;;;;;;;24.48;50.00;92984.22;5002246;28;20207;-74
2022/06/26 09:11:49;;;;;;;8.98;8.38;;;;;;;24.19;51.54;92995.50;4998392;28;20233;-73
2022/06/26 09:14:15;;;;;;;8.70;8.10;;;;;;;23.69;53.78;92990.25;5001211;28;20948;-73
2022/06/26 09:16:45;;;;;;;8.55;8.05;;;;;;;23.87;54.17;92990.63;5000709;28;20235;-73
2022/06/26 09:19:20;;;;;;;8.68;8.27;;;;;;;24.10;55.14;92975.47;5002283;28;20224;-73
2022/06/26 09:21:47;;;;;;;9.32;8.63;;;;;;;24.52;52.67;92979.72;5002104;28;20260;-74
2022/06/26 09:24:14;;;;;;;9.38;8.55;;;;;;;24.90;49.91;92994.88;4986897;28;20258;-73
2022/06/26 09:26:42;;;;;;;9.10;8.52;;;;;;;24.56;52.85;92982.44;4999154;28;20260;-73
2022/06/26 09:29:15;;;;;;;8.57;8.07;;;;;;;24.60;54.49;92989.38;5000808;28;20195;-73
2022/06/26 09:31:41;;;;;;;9.43;8.73;;;;;;;23.98;56.06;92978.31;4998997;28;20253;-73
2022/06/26 09:34:20;;;;;;;8.52;7.97;;;;;;;24.41;53.56;92994.75;5001187;28;20192;-73
2022/06/26 09:37:01;;;;;;;9.38;8.73;;;;;;;24.45;53.59;92986.81;5002164;28;20309;-73
2022/06/26 09:39:29;;;;;;;10.18;9.27;;;;;;;24.41;53.87;92994.75;5001596;28;20205;-73
2022/06/26 09:41:55;;;;;;;9.75;8.75;;;;;;;24.50;52.76;92984.63;5001709;28;20257;-74
2022/06/26 09:44:21;;;;;;;8.95;8.35;;;;;;;24.67;53.51;92988.78;5001862;28;20202;-73
2022/06/26 09:46:47;;;;;;;9.38;7.78;;;;;;;24.52;53.84;92994.94;5001781;28;20230;-74
2022/06/26 09:49:13;;;;;;;8.93;8.05;;;;;;;24.66;51.73;92976.53;4999691;28;20186;-73
2022/06/26 09:51:40;;;;;;;8.82;8.32;;;;;;;24.87;48.81;92992.91;5004614;28;20232;-73
2022/06/26 09:54:06;;;;;;;8.02;7.53;;;;;;;24.81;52.22;92999.69;5001913;28;20205;-73
2022/06/26 09:56:33;;;;;;;8.40;7.90;;;;;;;24.86;51.11;93005.50;4999614;28;20280;-74
2022/06/26 09:58:59;;;;;;;8.52;8.02;;;;;;;25.32;49.44;92998.22;5001815;28;20206;-74
2022/06/26 10:06:58;;;;;;;9.38;8.40;;;;;;;25.62;52.28;92996.34;4999407;28;20237;-74
2022/06/26 10:09:26;;;;;;;9.02;8.43;;;;;;;24.92;50.28;92982.69;4991419;28;20199;-74
2022/06/26 10:11:53;;;;;;;8.23;7.72;;;;;;;25.40;48.96;92993.75;5003801;28;20230;-73
2022/06/26 10:14:23;;;;;;;8.18;7.68;;;;;;;25.78;46.88;92991.59;5003318;28;20198;-75
2022/06/26 10:17:17;;;;;;;7.90;7.38;;;;;;;25.82;49.41;92986.31;5001193;28;20258;-74
2022/06/26 10:19:51;;;;;;;8.90;8.20;;;;;;;25.74;46.21;92982.78;5003428;28;20210;-74
2022/06/26 10:22:17;;;;;;;8.70;8.10;;;;;;;25.52;48.84;92983.63;5001339;28;20216;-74
2022/06/26 10:24:55;;;;;;;8.32;7.70;;;;;;;25.69;50.03;92983.09;5003325;28;20218;-74
2022/06/26 10:27:26;;;;;;;9.25;8.55;;;;;;;25.52;49.53;92967.59;4999574;28;20763;-73
2022/06/26 10:30:10;;;;;;;8.75;8.27;;;;;;;25.81;47.73;92958.78;5001137;28;20186;-72
2022/06/26 10:32:35;;;;;;;8.50;8.07;;;;;;;26.01;44.94;92965.53;5002351;28;20230;-73
2022/06/26 10:35:03;;;;;;;9.10;8.50;;;;;;;25.86;45.79;92969.16;5001393;28;20657;-74
2022/06/26 10:37:42;;;;;;;8.73;8.02;;;;;;;25.21;48.41;92946.50;5002447;28;20227;-74
2022/06/26 10:43:15;;;;;;;8.50;7.90;;;;;;;24.97;48.22;92926.28;5006217;28;20219;-74
2022/06/26 10:45:41;;;;;;;8.98;8.18;;;;;;;25.38;48.79;92948.66;5004481;28;20231;-75
2022/06/26 10:48:18;;;;;;;8.52;7.93;;;;;;;25.30;48.07;92957.69;5006137;28;20242;-74
2022/06/26 10:50:45;;;;;;;8.75;8.18;;;;;;;25.08;45.78;92939.81;5004799;28;20230;-74
2022/06/26 10:53:26;;;;;;;8.32;7.93;;;;;;;25.27;50.72;92945.06;5005788;28;20183;-75
2022/06/26 10:55:54;;;;;;;8.07;7.50;;;;;;;25.60;49.66;92955.06;5004138;28;20253;-74
2022/06/26 10:58:23;;;;;;;8.45;7.90;;;;;;;25.45;46.10;92948.75;5000898;28;20192;-75
2022/06/26 11:00:49;;;;;;;7.68;7.28;;;;;;;25.39;45.36;92955.56;5004036;28;20223;-73
2022/06/26 11:03:16;;;;;;;7.38;6.93;;;;;;;25.55;44.22;92929.41;5004001;28;20218;-73
2022/06/26 11:05:58;;;;;;;7.35;6.88;;;;;;;25.44;45.38;92928.50;5006140;28;20266;-75
2022/06/26 11:08:33;;;;;;;7.90;7.40;;;;;;;25.61;47.16;92946.69;5006410;28;20203;-73
2022/06/26 11:11:05;;;;;;;7.15;6.65;;;;;;;25.76;46.36;92951.06;5003461;28;20250;-74
2022/06/26 11:13:32;;;;;;;7.60;6.97;;;;;;;25.77;44.71;92946.50;5006742;28;20251;-75
2022/06/26 11:15:58;;;;;;;6.90;6.50;;;;;;;26.08;42.62;92956.81;5003286;28;20286;-74
2022/06/26 11:18:23;;;;;;;7.65;7.13;;;;;;;25.77;43.57;92949.16;4987008;28;20203;-74
2022/06/26 11:20:52;;;;;;;8.02;7.32;;;;;;;25.91;44.88;92941.31;5001048;28;20261;-74
2022/06/26 11:23:29;;;;;;;8.43;7.82;;;;;;;26.53;43.82;92938.56;5003035;28;20207;-74
2022/06/26 11:25:55;;;;;;;7.40;7.00;;;;;;;26.51;42.97;92942.72;5001791;28;20222;-74
2022/06/26 11:28:38;;;;;;;7.30;7.00;;;;;;;26.35;42.82;92945.63;5001965;28;20211;-74
2022/06/26 11:31:05;;;;;;;7.70;7.13;;;;;;;26.58;40.35;92950.84;5001640;28;20231;-74
2022/06/26 11:33:36;;;;;;;7.55;7.05;;;;;;;26.18;41.71;92967.66;5003813;28;20184;-74
2022/06/26 11:36:10;;;;;;;7.13;6.72;;;;;;;26.23;40.51;92948.59;5004295;28;20234;-74
2022/06/26 11:38:36;;;;;;;8.05;7.55;;;;;;;26.58;38.00;92948.91;5005238;28;20205;-73
2022/06/26 11:41:05;;;;;;;7.85;7.35;;;;;;;26.63;38.26;92945.94;5002624;28;20227;-75